Horizon Anchorage — KGTX — position and weather

sailwx.info

Track history (hours):
 
Tides and Currents Weather Stations Pressure Air Temp Water Temp Dewpoint Dewpoint Depression Visibility Wind Speed Wind Dir Waves Ship Positions

Horizon Anchorage

Owner: HORIZON LINES ALASKA VESSELS, LLC. C/O MATSON ALASKA, INC., Oakland, CA. More information available from US FCC via Universal Licensing System and Coast Guard Vessel Documentation Center.

Last reported at 2015-Jul-31 00:00 UTC. Time now 2015-Aug-01 01:23 UTC.
Position N 54°24' W 159°54'.

Type: Cargo ship. MMSI: 366557000.

Waves 0.5 meters (2 feet), 6 second period

Barometer 1018.5 mb
Air temperature 16.1 ° C
Visibility: greater than 10.8 NM
Dewpoint 12.4 ° C
Water temperature 12.8 ° C

Date/timePositionNaut miles runAvg speedWind from/ knotsBaromVisibWave heightAir tempDewpointWater temp
2015-Jul-31 00:00N 54°24' W 159°54'37910.5 1018.510.8 0.516.112.412.8
2015-Jul-29 12:00N 59°00' W 152°00'39 1.1 120 / 91012.010.8 0.513.912.012.8
2015-Jul-28 00:00N 58°48' W 150°48'23919.9 270 / 131006.010.8 1.015.011.214.4
2015-Jul-27 12:00N 57°00' W 144°06'28824.0 230 / 191007.510.8 1.013.3 9.313.3
2015-Jul-27 00:00N 54°54' W 136°24'16914.1 270 / 191013.510.8 2.015.011.214.4
2015-Jul-26 12:00N 52°42' W 133°24'31718.8 290 / 131017.910.8 17.211.616.1
2015-Jul-25 19:07N 49°21' W 126°54'1119.3
2015-Jul-25 18:33N 49°14' W 126°40'1919.3
2015-Jul-25 17:33N 49°03' W 126°17'1919.4
2015-Jul-25 16:33N 48°51' W 125°53'1918.9
2015-Jul-25 15:33N 48°42' W 125°28'2019.5
2015-Jul-25 14:33N 48°35' W 125°00'2020.3
2015-Jul-25 13:33N 48°27' W 124°32'2120.5
2015-Jul-25 12:33N 48°20' W 124°03'2121.0
2015-Jul-25 11:33N 48°15' W 123°32'1514.6
2015-Jul-25 10:33N 48°11' W 123°11'2220.0
2015-Jul-25 09:29N 48°07' W 122°39'1920.2
2015-Jul-25 08:33N 47°50' W 122°27'1919.1
2015-Jul-25 07:33N 47°31' W 122°26'1414.3
2015-Jul-25 06:33N 47°17' W 122°26'1 1.2
2015-Jul-25 05:33N 47°16' W 122°25'0 0.0
2015-Jul-25 04:33N 47°16' W 122°25'0 0.0
2015-Jul-25 03:32N 47°16' W 122°25'0 0.0
2015-Jul-25 02:23N 47°16' W 122°25'0 0.0
2015-Jul-24 23:28N 47°16' W 122°25'0 0.0
2015-Jul-24 22:29N 47°16' W 122°25'0 0.0
2015-Jul-24 20:29N 47°16' W 122°25'0 0.0
2015-Jul-24 19:28N 47°16' W 122°25'0 0.0
2015-Jul-24 18:28N 47°16' W 122°25'0 0.0
2015-Jul-24 17:32N 47°16' W 122°25'0 0.0
2015-Jul-24 16:22N 47°16' W 122°25'0 0.0
2015-Jul-24 15:31N 47°16' W 122°25'0 0.0
2015-Jul-24 14:31N 47°16' W 122°25'0 0.0
2015-Jul-24 13:31N 47°16' W 122°25'0 0.0
2015-Jul-24 10:28N 47°16' W 122°25'0 0.0
2015-Jul-24 09:28N 47°16' W 122°25'0 0.0
2015-Jul-24 08:28N 47°16' W 122°25'0 0.0
2015-Jul-24 07:29N 47°16' W 122°25'0 0.0
2015-Jul-24 06:31N 47°16' W 122°25'0 0.0
2015-Jul-24 05:33N 47°16' W 122°25'0 0.0
2015-Jul-24 04:33N 47°16' W 122°25'0 0.0
2015-Jul-24 03:33N 47°16' W 122°25'4 4.2
2015-Jul-24 02:33N 47°20' W 122°27'1717.1
2015-Jul-24 01:33N 47°37' W 122°28'1919.1
2015-Jul-24 00:33N 47°56' W 122°32'1918.2
2015-Jul-23 23:32N 48°11' W 122°48'2018.2
2015-Jul-23 22:26N 48°10' W 123°19'1315.2
2015-Jul-23 21:33N 48°13' W 123°38'1818.0
2015-Jul-23 20:33N 48°16' W 124°05'1818.0
2015-Jul-23 19:33N 48°24' W 124°29'1817.8
2015-Jul-23 18:33N 48°29' W 124°55'1818.6
2015-Jul-23 17:33N 48°34' W 125°22'1918.6
2015-Jul-23 16:33N 48°45' W 125°45'1817.8
2015-Jul-23 15:33N 48°55' W 126°07'1717.5
2015-Jul-23 14:33N 49°04' W 126°30'1919.4
2015-Jul-23 13:33N 49°15' W 126°54'2419.4
2015-Jul-23 12:20N 49°29' W 127°24'411.5
2015-Jul-23 12:00N 49°30' W 127°30'71019.7 330 / 101013.910.8 16.112.414.4
2015-Jul-22 00:00N 55°48' W 144°00'23319.4 200 / 131011.5 1.1 1.514.412.513.3
2015-Jul-21 12:00N 57°18' W 150°30'   220 / 191014.510.8 2.013.910.011.7
Track history (hours):
 
Tides and Currents Weather Stations Pressure Air Temp Water Temp Dewpoint Dewpoint Depression Visibility Wind Speed Wind Dir Waves Ship Positions

Horizon Anchorage

Owner: HORIZON LINES ALASKA VESSELS, LLC. C/O MATSON ALASKA, INC., Oakland, CA. More information available from US FCC via Universal Licensing System and Coast Guard Vessel Documentation Center.

Last reported at 2015-Jul-31 00:00 UTC. Time now 2015-Aug-01 01:23 UTC.
Position N 54°24' W 159°54'.

Type: Cargo ship. MMSI: 366557000.

Waves 0.5 meters (2 feet), 6 second period

Barometer 1018.5 mb
Air temperature 16.1 ° C
Visibility: greater than 10.8 NM
Dewpoint 12.4 ° C
Water temperature 12.8 ° C

Date/timePositionNaut miles runAvg speedWind from/ knotsBaromVisibWave heightAir tempDewpointWater temp
2015-Jul-31 00:00N 54°24' W 159°54'37910.5 1018.510.8 0.516.112.412.8
2015-Jul-29 12:00N 59°00' W 152°00'39 1.1 120 / 91012.010.8 0.513.912.012.8
2015-Jul-28 00:00N 58°48' W 150°48'23919.9 270 / 131006.010.8 1.015.011.214.4
2015-Jul-27 12:00N 57°00' W 144°06'28824.0 230 / 191007.510.8 1.013.3 9.313.3
2015-Jul-27 00:00N 54°54' W 136°24'16914.1 270 / 191013.510.8 2.015.011.214.4
2015-Jul-26 12:00N 52°42' W 133°24'31718.8 290 / 131017.910.8 17.211.616.1
2015-Jul-25 19:07N 49°21' W 126°54'1119.3
2015-Jul-25 18:33N 49°14' W 126°40'1919.3
2015-Jul-25 17:33N 49°03' W 126°17'1919.4
2015-Jul-25 16:33N 48°51' W 125°53'1918.9
2015-Jul-25 15:33N 48°42' W 125°28'2019.5
2015-Jul-25 14:33N 48°35' W 125°00'2020.3
2015-Jul-25 13:33N 48°27' W 124°32'2120.5
2015-Jul-25 12:33N 48°20' W 124°03'2121.0
2015-Jul-25 11:33N 48°15' W 123°32'1514.6
2015-Jul-25 10:33N 48°11' W 123°11'2220.0
2015-Jul-25 09:29N 48°07' W 122°39'1920.2
2015-Jul-25 08:33N 47°50' W 122°27'1919.1
2015-Jul-25 07:33N 47°31' W 122°26'1414.3
2015-Jul-25 06:33N 47°17' W 122°26'1 1.2
2015-Jul-25 05:33N 47°16' W 122°25'0 0.0
2015-Jul-25 04:33N 47°16' W 122°25'0 0.0
2015-Jul-25 03:32N 47°16' W 122°25'0 0.0
2015-Jul-25 02:23N 47°16' W 122°25'0 0.0
2015-Jul-24 23:28N 47°16' W 122°25'0 0.0
2015-Jul-24 22:29N 47°16' W 122°25'0 0.0
2015-Jul-24 20:29N 47°16' W 122°25'0 0.0
2015-Jul-24 19:28N 47°16' W 122°25'0 0.0
2015-Jul-24 18:28N 47°16' W 122°25'0 0.0
2015-Jul-24 17:32N 47°16' W 122°25'0 0.0
2015-Jul-24 16:22N 47°16' W 122°25'0 0.0
2015-Jul-24 15:31N 47°16' W 122°25'0 0.0
2015-Jul-24 14:31N 47°16' W 122°25'0 0.0
2015-Jul-24 13:31N 47°16' W 122°25'0 0.0
2015-Jul-24 10:28N 47°16' W 122°25'0 0.0
2015-Jul-24 09:28N 47°16' W 122°25'0 0.0
2015-Jul-24 08:28N 47°16' W 122°25'0 0.0
2015-Jul-24 07:29N 47°16' W 122°25'0 0.0
2015-Jul-24 06:31N 47°16' W 122°25'0 0.0
2015-Jul-24 05:33N 47°16' W 122°25'0 0.0
2015-Jul-24 04:33N 47°16' W 122°25'0 0.0
2015-Jul-24 03:33N 47°16' W 122°25'4 4.2
2015-Jul-24 02:33N 47°20' W 122°27'1717.1
2015-Jul-24 01:33N 47°37' W 122°28'1919.1
2015-Jul-24 00:33N 47°56' W 122°32'1918.2
2015-Jul-23 23:32N 48°11' W 122°48'2018.2
2015-Jul-23 22:26N 48°10' W 123°19'1315.2
2015-Jul-23 21:33N 48°13' W 123°38'1818.0
2015-Jul-23 20:33N 48°16' W 124°05'1818.0
2015-Jul-23 19:33N 48°24' W 124°29'1817.8
2015-Jul-23 18:33N 48°29' W 124°55'1818.6
2015-Jul-23 17:33N 48°34' W 125°22'1918.6
2015-Jul-23 16:33N 48°45' W 125°45'1817.8
2015-Jul-23 15:33N 48°55' W 126°07'1717.5
2015-Jul-23 14:33N 49°04' W 126°30'1919.4
2015-Jul-23 13:33N 49°15' W 126°54'2419.4
2015-Jul-23 12:20N 49°29' W 127°24'411.5
2015-Jul-23 12:00N 49°30' W 127°30'71019.7 330 / 101013.910.8 16.112.414.4
2015-Jul-22 00:00N 55°48' W 144°00'23319.4 200 / 131011.5 1.1 1.514.412.513.3
2015-Jul-21 12:00N 57°18' W 150°30'   220 / 191014.510.8 2.013.910.011.7

Dump ship's entire track history